»·PEaware :: CAP2775 KVGT-KBTY

CAP2775 :: KVGT-KBTY

FLIGHT INFORMATION

Flight Status: Arrived
Operator: Unknown
More flights by this operator :: More flights under this callsign
Pilot: Dustin P. (9568)
Aircraft: CESSNA 182 SKYLANE
(C182)
More flights by this aircraft type
Origin: KVGT North Las Vegas
United States
Destination: KBTY Beatty
United States
More flights between these airports :: More routes between these airports
Route: VPVLM VPVKC PIUTE BTY
File this flight plan on PilotEdge
Remarks:
Altitude:
(Current/Filed)
12,500ft
Speed:
(Current/Filed)
150kts
Departed: 09-Nov-19 01:18 PM
Arrived: 09-Nov-19 02:13 PM
Distance/Time
Traveled:
86nm/0:55
Distance/Time
To Go:
Arrived

Flight Plot

Page will automatically refresh every two minutes.

Flight plan parsing failed; only flown route is shown


Map Options




Map Legend


Flown Route
Filed Route
Departure Airport
Arrival Airport
Navaid (VOR, NDB)
Fix

Horizontal Profiles

Position Reports

Time Latitude Longitude Heading Altitude Ground
Speed
09-Nov-19 12:54 36.210509 -115.199801 219 2208ft 0kts
09-Nov-19 12:55 36.210509 -115.199801 219 2208ft 0kts
09-Nov-19 12:56 36.210509 -115.199801 219 2208ft 0kts
09-Nov-19 12:57 36.210509 -115.199801 219 2208ft 0kts
09-Nov-19 12:58 36.210509 -115.199801 219 2208ft 0kts
09-Nov-19 13:00 36.210509 -115.199801 219 2208ft 0kts
09-Nov-19 13:01 36.210509 -115.199801 219 2208ft 0kts
09-Nov-19 13:02 36.210508 -115.199802 219 2208ft 0kts
09-Nov-19 13:03 36.210497 -115.199813 219 2208ft 0kts
09-Nov-19 13:04 36.210496 -115.199814 219 2208ft 0kts
09-Nov-19 13:05 36.210495 -115.199815 219 2208ft 0kts
09-Nov-19 13:06 36.210494 -115.199816 219 2208ft 0kts
09-Nov-19 13:07 36.210493 -115.199817 219 2208ft 0kts
09-Nov-19 13:08 36.210492 -115.199818 219 2208ft 0kts
09-Nov-19 13:09 36.210491 -115.199819 219 2208ft 0kts
09-Nov-19 13:10 36.210490 -115.199820 219 2208ft 0kts
09-Nov-19 13:11 36.210489 -115.199821 219 2208ft 0kts
09-Nov-19 13:12 36.210354 -115.199953 216 2208ft 7kts
09-Nov-19 13:13 36.210514 -115.198420 306 2208ft 7kts
09-Nov-19 13:14 36.212543 -115.201031 310 2208ft 3kts
09-Nov-19 13:15 36.212707 -115.200884 42 2208ft 0kts
09-Nov-19 13:16 36.212708 -115.200883 42 2208ft 0kts
09-Nov-19 13:16 36.212786 -115.200163 119 2208ft 8kts
09-Nov-19 13:18 36.202144 -115.186414 134 2511ft 79kts
09-Nov-19 13:19 36.209618 -115.161459 9 2950ft 120kts
09-Nov-19 13:19 36.229666 -115.186839 302 3013ft 146kts
09-Nov-19 13:20 36.248702 -115.229049 292 3531ft 119kts
09-Nov-19 13:21 36.261857 -115.266442 282 4077ft 125kts
09-Nov-19 13:23 36.242794 -115.302788 242 5007ft 99kts
09-Nov-19 13:23 36.255043 -115.321743 341 5603ft 105kts
09-Nov-19 13:24 36.282709 -115.330828 346 6419ft 102kts
09-Nov-19 13:25 36.309959 -115.337910 346 7525ft 104kts
09-Nov-19 13:26 36.336647 -115.348688 307 8308ft 109kts
09-Nov-19 13:27 36.342221 -115.383988 274 9305ft 108kts
09-Nov-19 13:28 36.346595 -115.421357 275 10153ft 111kts
09-Nov-19 13:29 36.352282 -115.458953 285 11080ft 111kts
09-Nov-19 13:30 36.362031 -115.495936 288 11785ft 119kts
09-Nov-19 13:31 36.372305 -115.534134 289 12306ft 115kts
09-Nov-19 13:32 36.383778 -115.573800 292 12655ft 132kts
09-Nov-19 13:33 36.400463 -115.618949 293 12633ft 150kts
09-Nov-19 13:34 36.414528 -115.671591 290 12323ft 172kts
09-Nov-19 13:35 36.428532 -115.723913 290 12394ft 153kts
09-Nov-19 13:36 36.444706 -115.770989 294 12482ft 141kts
09-Nov-19 13:37 36.455976 -115.818176 284 12502ft 144kts
09-Nov-19 13:38 36.465032 -115.866531 278 12508ft 144kts
09-Nov-19 13:39 36.471566 -115.917370 276 12505ft 150kts
09-Nov-19 13:40 36.478842 -115.971273 288 12502ft 158kts
09-Nov-19 13:41 36.492583 -116.021124 288 12501ft 148kts
09-Nov-19 13:42 36.504908 -116.069250 287 12509ft 145kts
09-Nov-19 13:43 36.521932 -116.118474 300 12510ft 157kts
09-Nov-19 13:44 36.526490 -116.169190 265 12502ft 156kts
09-Nov-19 13:45 36.548616 -116.212351 329 12510ft 157kts
09-Nov-19 13:46 36.579500 -116.250744 305 12504ft 156kts
09-Nov-19 13:47 36.601553 -116.299200 290 12502ft 158kts
09-Nov-19 13:48 36.621617 -116.349193 300 12520ft 157kts
09-Nov-19 13:49 36.648234 -116.389976 311 12469ft 154kts
09-Nov-19 13:50 36.667089 -116.438083 289 12356ft 153kts
09-Nov-19 13:51 36.680279 -116.487826 301 12497ft 161kts
09-Nov-19 13:52 36.707644 -116.528909 315 12431ft 162kts
09-Nov-19 13:53 36.731441 -116.571311 290 12482ft 146kts
09-Nov-19 13:54 36.741728 -116.619860 298 12658ft 142kts
09-Nov-19 13:55 36.762094 -116.660888 308 12757ft 138kts
09-Nov-19 13:56 36.782819 -116.701958 297 12820ft 137kts
09-Nov-19 13:57 36.800567 -116.748609 294 12547ft 150kts
09-Nov-19 13:58 36.829264 -116.783934 340 12415ft 128kts
09-Nov-19 13:59 36.857759 -116.762344 35 9032ft 130kts
09-Nov-19 14:00 36.880682 -116.734445 128 6286ft 119kts
09-Nov-19 14:01 36.842448 -116.730111 182 5867ft 152kts
09-Nov-19 14:02 36.810221 -116.740214 243 4974ft 103kts
09-Nov-19 14:03 36.820731 -116.770864 316 4088ft 116kts
09-Nov-19 14:04 36.846086 -116.766808 84 4189ft 125kts
09-Nov-19 14:05 36.842833 -116.775452 336 4272ft 127kts
09-Nov-19 14:06 36.876376 -116.771277 20 3992ft 103kts
09-Nov-19 14:07 36.878439 -116.786555 176 3474ft 88kts
09-Nov-19 14:08 36.857235 -116.785716 179 3352ft 80kts
09-Nov-19 14:09 36.838301 -116.768142 81 4128ft 86kts
09-Nov-19 14:10 36.862780 -116.759095 357 4369ft 80kts
09-Nov-19 14:11 36.875310 -116.777294 274 3689ft 79kts
09-Nov-19 14:12 36.861355 -116.786437 180 3173ft 23kts
09-Nov-19 14:13 36.861783 -116.786431 0 3173ft 12kts
09-Nov-19 14:14 36.868085 -116.786420 1 3173ft 20kts
09-Nov-19 14:15 36.868581 -116.785379 44 3173ft 0kts
09-Nov-19 14:16 36.868369 -116.784716 173 3173ft 11kts
09-Nov-19 14:17 36.868061 -116.784307 108 3173ft 0kts
09-Nov-19 14:18 36.868061 -116.784308 108 3173ft 0kts
09-Nov-19 14:19 36.868035 -116.784350 170 3173ft 0kts
09-Nov-19 14:20 36.868035 -116.784350 170 3173ft 0kts
09-Nov-19 14:21 36.868035 -116.784350 170 3173ft 0kts
09-Nov-19 14:22 36.868035 -116.784350 170 3173ft 0kts
09-Nov-19 14:23 36.868035 -116.784350 170 3173ft 0kts
09-Nov-19 14:24 36.868035 -116.784350 170 3173ft 0kts
09-Nov-19 14:25 36.868035 -116.784350 170 3173ft 0kts
09-Nov-19 14:26 36.868035 -116.784350 170 3173ft 0kts

Navigation Log

Ident Type
Flight plan parsing failed, navigation log unavailable